To NAV CANADA Home Page Login to a new session Search on AWWS site Disclaimer Vers la page française équivalente Tips FAQ What's new on the site To the Forecasts and Observations / NOTAM section To "File a Flight Plan" website Publications and other links Update of the User's profile FIC Telephone Numbers My Weather Data Folder Route Weather Data Regional Weather Data Local Weather Data To the Forecasts and Observations / NOTAM section
Request Generated 10/19/2018 at 15:33:23 UTC . Weather information available at that time is displayed.

METAR/TAF

CAMPBELL RIVER/BC    

METAR CYBL 191500Z 31003KT 15SM FEW005 FEW220 01/00 A3026 RMK SF1CI2 SF TR SLP254=
METAR CYBL 191400Z 30003KT 15SM FEW001 M00/M00 A3026 RMK ST2 SLP253=
METAR CYBL 191300Z 29002KT 8SM FEW002 01/01 A3026 RMK ST2 VIS W 2 SLP250=

TAF CYBL 191438Z 1915/2003 VRB03KT P6SM FEW002 TEMPO 1915/1918 1SM BR
BKN002
RMK NXT FCST BY 191900Z=
Your time UTC time
Weather data provided by Environment Canada and NAV CANADA